sensor_id;sensor_type;location;lat;lon;timestamp;P1;durP1;ratioP1;P2;durP2;ratioP2
69185;SDS011;56298;49.246;9.410;2023-05-16T00:00:46;14.00;;;7.70;;
69185;SDS011;56298;49.246;9.410;2023-05-16T00:03:12;12.55;;;7.78;;
69185;SDS011;56298;49.246;9.410;2023-05-16T00:05:37;11.57;;;7.40;;
69185;SDS011;56298;49.246;9.410;2023-05-16T00:08:03;11.45;;;7.28;;
69185;SDS011;56298;49.246;9.410;2023-05-16T00:10:28;11.97;;;7.77;;
69185;SDS011;56298;49.246;9.410;2023-05-16T00:12:53;13.03;;;7.90;;
69185;SDS011;56298;49.246;9.410;2023-05-16T00:15:20;13.85;;;7.97;;
69185;SDS011;56298;49.246;9.410;2023-05-16T00:17:47;11.75;;;7.60;;
69185;SDS011;56298;49.246;9.410;2023-05-16T00:20:13;10.55;;;7.57;;
69185;SDS011;56298;49.246;9.410;2023-05-16T00:22:41;11.82;;;7.40;;
69185;SDS011;56298;49.246;9.410;2023-05-16T00:25:06;11.73;;;7.90;;
69185;SDS011;56298;49.246;9.410;2023-05-16T00:27:35;11.80;;;7.97;;
69185;SDS011;56298;49.246;9.410;2023-05-16T00:30:01;13.80;;;8.27;;
69185;SDS011;56298;49.246;9.410;2023-05-16T00:32:26;12.20;;;7.80;;
69185;SDS011;56298;49.246;9.410;2023-05-16T00:34:52;12.23;;;7.70;;
69185;SDS011;56298;49.246;9.410;2023-05-16T00:37:17;11.27;;;7.60;;
69185;SDS011;56298;49.246;9.410;2023-05-16T00:39:42;13.60;;;8.00;;
69185;SDS011;56298;49.246;9.410;2023-05-16T00:42:07;12.68;;;8.00;;
69185;SDS011;56298;49.246;9.410;2023-05-16T00:44:33;13.80;;;8.33;;
69185;SDS011;56298;49.246;9.410;2023-05-16T00:46:58;12.73;;;8.40;;
69185;SDS011;56298;49.246;9.410;2023-05-16T00:49:26;14.20;;;8.38;;
69185;SDS011;56298;49.246;9.410;2023-05-16T00:51:52;12.03;;;8.17;;
69185;SDS011;56298;49.246;9.410;2023-05-16T00:54:19;13.07;;;8.30;;
69185;SDS011;56298;49.246;9.410;2023-05-16T00:56:46;12.35;;;8.45;;
69185;SDS011;56298;49.246;9.410;2023-05-16T00:59:12;13.60;;;8.60;;
69185;SDS011;56298;49.246;9.410;2023-05-16T01:01:37;14.47;;;8.20;;
69185;SDS011;56298;49.246;9.410;2023-05-16T01:04:04;13.67;;;8.80;;
69185;SDS011;56298;49.246;9.410;2023-05-16T01:06:29;12.02;;;8.18;;
69185;SDS011;56298;49.246;9.410;2023-05-16T01:08:55;14.50;;;8.80;;
69185;SDS011;56298;49.246;9.410;2023-05-16T01:16:39;14.88;;;10.02;;
69185;SDS011;56298;49.246;9.410;2023-05-16T01:27:18;13.93;;;9.05;;
69185;SDS011;56298;49.246;9.410;2023-05-16T01:29:43;15.23;;;10.07;;
69185;SDS011;56298;49.246;9.410;2023-05-16T01:32:08;16.47;;;9.77;;
69185;SDS011;56298;49.246;9.410;2023-05-16T01:34:34;15.33;;;9.57;;
69185;SDS011;56298;49.246;9.410;2023-05-16T01:37:01;12.93;;;8.80;;
69185;SDS011;56298;49.246;9.410;2023-05-16T01:39:40;14.90;;;9.77;;
69185;SDS011;56298;49.246;9.410;2023-05-16T01:44:59;14.35;;;9.65;;
69185;SDS011;56298;49.246;9.410;2023-05-16T01:47:32;13.75;;;9.10;;
69185;SDS011;56298;49.246;9.410;2023-05-16T01:50:17;14.38;;;9.68;;
69185;SDS011;56298;49.246;9.410;2023-05-16T01:52:52;14.80;;;9.60;;
69185;SDS011;56298;49.246;9.410;2023-05-16T01:55:23;13.93;;;9.35;;
69185;SDS011;56298;49.246;9.410;2023-05-16T01:58:01;14.80;;;9.30;;
69185;SDS011;56298;49.246;9.410;2023-05-16T02:00:29;15.02;;;9.02;;
69185;SDS011;56298;49.246;9.410;2023-05-16T02:02:55;15.38;;;9.50;;
69185;SDS011;56298;49.246;9.410;2023-05-16T02:05:20;13.97;;;9.33;;
69185;SDS011;56298;49.246;9.410;2023-05-16T02:07:46;14.67;;;8.77;;
69185;SDS011;56298;49.246;9.410;2023-05-16T02:10:11;13.68;;;9.23;;
69185;SDS011;56298;49.246;9.410;2023-05-16T02:12:37;14.00;;;8.60;;
69185;SDS011;56298;49.246;9.410;2023-05-16T02:15:03;13.27;;;8.00;;
69185;SDS011;56298;49.246;9.410;2023-05-16T02:17:28;11.90;;;7.93;;
69185;SDS011;56298;49.246;9.410;2023-05-16T02:19:53;13.23;;;7.87;;
69185;SDS011;56298;49.246;9.410;2023-05-16T02:22:18;12.27;;;7.60;;
69185;SDS011;56298;49.246;9.410;2023-05-16T02:24:44;14.27;;;8.77;;
69185;SDS011;56298;49.246;9.410;2023-05-16T02:27:09;14.20;;;8.60;;
69185;SDS011;56298;49.246;9.410;2023-05-16T02:29:34;13.20;;;7.90;;
69185;SDS011;56298;49.246;9.410;2023-05-16T02:32:00;15.83;;;8.50;;
69185;SDS011;56298;49.246;9.410;2023-05-16T02:34:25;14.03;;;8.20;;
69185;SDS011;56298;49.246;9.410;2023-05-16T02:36:50;14.00;;;8.37;;
69185;SDS011;56298;49.246;9.410;2023-05-16T02:39:16;13.75;;;8.32;;
69185;SDS011;56298;49.246;9.410;2023-05-16T02:41:41;14.27;;;9.20;;
69185;SDS011;56298;49.246;9.410;2023-05-16T02:44:06;14.07;;;8.97;;
69185;SDS011;56298;49.246;9.410;2023-05-16T02:46:34;13.53;;;8.93;;
69185;SDS011;56298;49.246;9.410;2023-05-16T02:49:00;14.48;;;8.80;;
69185;SDS011;56298;49.246;9.410;2023-05-16T02:51:26;13.88;;;9.05;;
69185;SDS011;56298;49.246;9.410;2023-05-16T02:53:52;17.63;;;10.00;;
69185;SDS011;56298;49.246;9.410;2023-05-16T02:56:18;18.13;;;9.98;;
69185;SDS011;56298;49.246;9.410;2023-05-16T02:58:45;13.87;;;9.63;;
69185;SDS011;56298;49.246;9.410;2023-05-16T03:01:12;14.80;;;9.65;;
69185;SDS011;56298;49.246;9.410;2023-05-16T03:03:37;14.90;;;9.70;;
69185;SDS011;56298;49.246;9.410;2023-05-16T03:06:03;16.67;;;9.63;;
69185;SDS011;56298;49.246;9.410;2023-05-16T03:08:28;13.93;;;8.93;;
69185;SDS011;56298;49.246;9.410;2023-05-16T03:10:53;13.43;;;9.17;;
69185;SDS011;56298;49.246;9.410;2023-05-16T03:13:18;14.33;;;9.17;;
69185;SDS011;56298;49.246;9.410;2023-05-16T03:15:44;14.30;;;8.70;;
69185;SDS011;56298;49.246;9.410;2023-05-16T03:18:09;12.63;;;9.00;;
69185;SDS011;56298;49.246;9.410;2023-05-16T03:20:35;13.80;;;9.23;;
69185;SDS011;56298;49.246;9.410;2023-05-16T03:23:01;12.88;;;8.95;;
69185;SDS011;56298;49.246;9.410;2023-05-16T03:25:26;13.50;;;8.90;;
69185;SDS011;56298;49.246;9.410;2023-05-16T03:27:51;14.83;;;9.60;;
69185;SDS011;56298;49.246;9.410;2023-05-16T03:30:18;13.20;;;8.67;;
69185;SDS011;56298;49.246;9.410;2023-05-16T03:32:44;14.57;;;9.32;;
69185;SDS011;56298;49.246;9.410;2023-05-16T03:35:10;12.82;;;8.38;;
69185;SDS011;56298;49.246;9.410;2023-05-16T03:37:36;14.27;;;9.25;;
69185;SDS011;56298;49.246;9.410;2023-05-16T03:40:01;13.07;;;8.90;;
69185;SDS011;56298;49.246;9.410;2023-05-16T03:42:29;13.48;;;8.18;;
69185;SDS011;56298;49.246;9.410;2023-05-16T03:44:55;12.13;;;8.33;;
69185;SDS011;56298;49.246;9.410;2023-05-16T03:47:20;14.53;;;9.40;;
69185;SDS011;56298;49.246;9.410;2023-05-16T03:49:46;14.37;;;8.80;;
69185;SDS011;56298;49.246;9.410;2023-05-16T03:52:11;12.47;;;8.43;;
69185;SDS011;56298;49.246;9.410;2023-05-16T03:54:36;13.50;;;8.43;;
69185;SDS011;56298;49.246;9.410;2023-05-16T03:57:01;13.53;;;8.83;;
69185;SDS011;56298;49.246;9.410;2023-05-16T03:59:27;14.10;;;8.93;;
69185;SDS011;56298;49.246;9.410;2023-05-16T04:01:52;13.63;;;9.10;;
69185;SDS011;56298;49.246;9.410;2023-05-16T04:04:17;13.03;;;8.93;;
69185;SDS011;56298;49.246;9.410;2023-05-16T04:06:43;13.93;;;8.87;;
69185;SDS011;56298;49.246;9.410;2023-05-16T04:09:08;13.93;;;8.83;;
69185;SDS011;56298;49.246;9.410;2023-05-16T04:11:33;13.20;;;8.37;;
69185;SDS011;56298;49.246;9.410;2023-05-16T04:13:58;16.80;;;10.63;;
69185;SDS011;56298;49.246;9.410;2023-05-16T04:16:25;16.07;;;10.53;;
69185;SDS011;56298;49.246;9.410;2023-05-16T04:18:50;13.93;;;8.70;;
69185;SDS011;56298;49.246;9.410;2023-05-16T04:21:16;14.23;;;8.80;;
69185;SDS011;56298;49.246;9.410;2023-05-16T04:23:41;14.80;;;9.07;;
69185;SDS011;56298;49.246;9.410;2023-05-16T04:26:06;13.03;;;8.77;;
69185;SDS011;56298;49.246;9.410;2023-05-16T04:28:31;13.90;;;8.37;;
69185;SDS011;56298;49.246;9.410;2023-05-16T04:30:57;13.03;;;8.20;;
69185;SDS011;56298;49.246;9.410;2023-05-16T04:33:22;12.03;;;8.13;;
69185;SDS011;56298;49.246;9.410;2023-05-16T04:35:47;13.17;;;8.53;;
69185;SDS011;56298;49.246;9.410;2023-05-16T04:38:13;13.88;;;8.02;;
69185;SDS011;56298;49.246;9.410;2023-05-16T04:40:39;12.35;;;8.40;;
69185;SDS011;56298;49.246;9.410;2023-05-16T04:43:05;13.90;;;8.17;;
69185;SDS011;56298;49.246;9.410;2023-05-16T04:45:31;13.52;;;8.48;;
69185;SDS011;56298;49.246;9.410;2023-05-16T04:47:56;12.40;;;8.17;;
69185;SDS011;56298;49.246;9.410;2023-05-16T04:50:21;13.43;;;8.43;;
69185;SDS011;56298;49.246;9.410;2023-05-16T04:52:47;14.67;;;9.30;;
69185;SDS011;56298;49.246;9.410;2023-05-16T04:55:12;13.40;;;9.50;;
69185;SDS011;56298;49.246;9.410;2023-05-16T04:57:37;13.70;;;9.60;;
69185;SDS011;56298;49.246;9.410;2023-05-16T05:00:03;13.10;;;9.67;;
69185;SDS011;56298;49.246;9.410;2023-05-16T05:02:31;24.83;;;15.63;;
69185;SDS011;56298;49.246;9.410;2023-05-16T05:04:57;18.60;;;11.83;;
69185;SDS011;56298;49.246;9.410;2023-05-16T05:07:22;14.30;;;9.03;;
69185;SDS011;56298;49.246;9.410;2023-05-16T05:09:48;13.05;;;8.60;;
69185;SDS011;56298;49.246;9.410;2023-05-16T05:12:13;13.43;;;8.53;;
69185;SDS011;56298;49.246;9.410;2023-05-16T05:14:38;12.43;;;8.53;;
69185;SDS011;56298;49.246;9.410;2023-05-16T05:17:03;13.13;;;8.47;;
69185;SDS011;56298;49.246;9.410;2023-05-16T05:19:29;13.47;;;9.27;;
69185;SDS011;56298;49.246;9.410;2023-05-16T05:21:54;13.90;;;9.73;;
69185;SDS011;56298;49.246;9.410;2023-05-16T05:24:19;14.20;;;10.37;;
69185;SDS011;56298;49.246;9.410;2023-05-16T05:26:44;19.80;;;13.33;;
69185;SDS011;56298;49.246;9.410;2023-05-16T05:29:10;16.90;;;11.33;;
69185;SDS011;56298;49.246;9.410;2023-05-16T05:31:35;17.30;;;11.00;;
69185;SDS011;56298;49.246;9.410;2023-05-16T05:34:01;16.63;;;11.13;;
69185;SDS011;56298;49.246;9.410;2023-05-16T05:36:26;14.77;;;9.70;;
69185;SDS011;56298;49.246;9.410;2023-05-16T05:38:52;15.67;;;10.27;;
69185;SDS011;56298;49.246;9.410;2023-05-16T05:41:17;17.47;;;11.00;;
69185;SDS011;56298;49.246;9.410;2023-05-16T05:43:42;17.00;;;11.27;;
69185;SDS011;56298;49.246;9.410;2023-05-16T05:46:07;15.40;;;11.47;;
69185;SDS011;56298;49.246;9.410;2023-05-16T05:48:33;16.97;;;10.97;;
69185;SDS011;56298;49.246;9.410;2023-05-16T05:50:58;16.93;;;11.17;;
69185;SDS011;56298;49.246;9.410;2023-05-16T05:53:23;16.70;;;11.70;;
69185;SDS011;56298;49.246;9.410;2023-05-16T05:55:49;16.23;;;10.87;;
69185;SDS011;56298;49.246;9.410;2023-05-16T05:58:14;22.20;;;13.53;;
69185;SDS011;56298;49.246;9.410;2023-05-16T06:00:39;21.60;;;14.00;;
69185;SDS011;56298;49.246;9.410;2023-05-16T06:03:05;22.05;;;15.10;;
69185;SDS011;56298;49.246;9.410;2023-05-16T06:05:30;25.83;;;16.30;;
69185;SDS011;56298;49.246;9.410;2023-05-16T06:07:55;28.63;;;17.80;;
69185;SDS011;56298;49.246;9.410;2023-05-16T06:10:21;28.67;;;18.10;;
69185;SDS011;56298;49.246;9.410;2023-05-16T06:12:47;30.00;;;18.40;;
69185;SDS011;56298;49.246;9.410;2023-05-16T06:15:12;28.33;;;18.47;;
69185;SDS011;56298;49.246;9.410;2023-05-16T06:17:37;29.23;;;18.67;;
69185;SDS011;56298;49.246;9.410;2023-05-16T06:20:03;32.07;;;19.33;;
69185;SDS011;56298;49.246;9.410;2023-05-16T06:22:28;32.15;;;19.70;;
69185;SDS011;56298;49.246;9.410;2023-05-16T06:24:54;33.70;;;20.77;;
69185;SDS011;56298;49.246;9.410;2023-05-16T06:27:19;36.30;;;21.20;;
69185;SDS011;56298;49.246;9.410;2023-05-16T06:29:44;36.27;;;21.07;;
69185;SDS011;56298;49.246;9.410;2023-05-16T06:32:10;33.97;;;20.97;;
69185;SDS011;56298;49.246;9.410;2023-05-16T06:34:35;38.23;;;21.53;;
69185;SDS011;56298;49.246;9.410;2023-05-16T06:37:01;34.53;;;20.80;;
69185;SDS011;56298;49.246;9.410;2023-05-16T06:39:27;35.30;;;20.88;;
69185;SDS011;56298;49.246;9.410;2023-05-16T06:41:53;36.63;;;21.20;;
69185;SDS011;56298;49.246;9.410;2023-05-16T06:44:18;37.67;;;21.63;;
69185;SDS011;56298;49.246;9.410;2023-05-16T06:46:43;35.20;;;20.73;;
69185;SDS011;56298;49.246;9.410;2023-05-16T06:49:08;32.63;;;20.63;;
69185;SDS011;56298;49.246;9.410;2023-05-16T06:51:34;33.23;;;20.20;;
69185;SDS011;56298;49.246;9.410;2023-05-16T06:53:59;33.97;;;20.07;;
69185;SDS011;56298;49.246;9.410;2023-05-16T06:56:24;32.90;;;19.83;;
69185;SDS011;56298;49.246;9.410;2023-05-16T06:58:49;34.37;;;20.73;;
69185;SDS011;56298;49.246;9.410;2023-05-16T07:01:15;35.40;;;21.00;;
69185;SDS011;56298;49.246;9.410;2023-05-16T07:03:40;35.85;;;20.25;;
69185;SDS011;56298;49.246;9.410;2023-05-16T07:06:06;32.83;;;20.33;;
69185;SDS011;56298;49.246;9.410;2023-05-16T07:08:31;35.23;;;20.47;;
69185;SDS011;56298;49.246;9.410;2023-05-16T07:10:57;32.88;;;19.73;;
69185;SDS011;56298;49.246;9.410;2023-05-16T07:13:22;34.33;;;20.50;;
69185;SDS011;56298;49.246;9.410;2023-05-16T07:15:47;33.57;;;19.80;;
69185;SDS011;56298;49.246;9.410;2023-05-16T07:18:13;36.72;;;21.27;;
69185;SDS011;56298;49.246;9.410;2023-05-16T07:20:38;37.70;;;22.00;;
69185;SDS011;56298;49.246;9.410;2023-05-16T07:23:03;39.50;;;23.03;;
69185;SDS011;56298;49.246;9.410;2023-05-16T07:25:28;38.80;;;22.70;;
69185;SDS011;56298;49.246;9.410;2023-05-16T07:27:54;39.33;;;22.60;;
69185;SDS011;56298;49.246;9.410;2023-05-16T07:30:19;38.73;;;22.70;;
69185;SDS011;56298;49.246;9.410;2023-05-16T07:32:45;46.67;;;24.13;;
69185;SDS011;56298;49.246;9.410;2023-05-16T07:35:10;45.80;;;25.00;;
69185;SDS011;56298;49.246;9.410;2023-05-16T07:37:37;49.83;;;25.90;;
69185;SDS011;56298;49.246;9.410;2023-05-16T07:40:05;43.70;;;25.17;;
69185;SDS011;56298;49.246;9.410;2023-05-16T07:42:32;48.10;;;26.00;;
69185;SDS011;56298;49.246;9.410;2023-05-16T07:44:57;49.03;;;26.67;;
69185;SDS011;56298;49.246;9.410;2023-05-16T07:47:22;49.53;;;26.83;;
69185;SDS011;56298;49.246;9.410;2023-05-16T07:49:48;51.07;;;25.83;;
69185;SDS011;56298;49.246;9.410;2023-05-16T07:52:13;48.13;;;25.17;;
69185;SDS011;56298;49.246;9.410;2023-05-16T07:54:38;46.83;;;25.70;;
69185;SDS011;56298;49.246;9.410;2023-05-16T07:57:04;45.17;;;25.30;;
69185;SDS011;56298;49.246;9.410;2023-05-16T07:59:29;44.80;;;24.47;;
69185;SDS011;56298;49.246;9.410;2023-05-16T08:01:54;42.83;;;23.77;;
69185;SDS011;56298;49.246;9.410;2023-05-16T08:04:20;44.40;;;24.30;;
69185;SDS011;56298;49.246;9.410;2023-05-16T08:06:45;44.87;;;24.27;;
69185;SDS011;56298;49.246;9.410;2023-05-16T08:09:11;44.57;;;24.53;;
69185;SDS011;56298;49.246;9.410;2023-05-16T08:11:36;40.33;;;22.80;;
69185;SDS011;56298;49.246;9.410;2023-05-16T08:14:03;42.80;;;23.08;;
69185;SDS011;56298;49.246;9.410;2023-05-16T08:16:29;42.50;;;23.40;;
69185;SDS011;56298;49.246;9.410;2023-05-16T08:18:55;40.65;;;23.65;;
69185;SDS011;56298;49.246;9.410;2023-05-16T08:21:20;40.63;;;22.40;;
69185;SDS011;56298;49.246;9.410;2023-05-16T08:23:45;42.97;;;23.93;;
69185;SDS011;56298;49.246;9.410;2023-05-16T08:26:10;39.70;;;22.53;;
69185;SDS011;56298;49.246;9.410;2023-05-16T08:28:36;43.05;;;24.25;;
69185;SDS011;56298;49.246;9.410;2023-05-16T08:31:02;40.92;;;23.30;;
69185;SDS011;56298;49.246;9.410;2023-05-16T08:33:27;44.10;;;24.55;;
69185;SDS011;56298;49.246;9.410;2023-05-16T08:35:52;41.15;;;23.35;;
69185;SDS011;56298;49.246;9.410;2023-05-16T08:38:18;41.03;;;22.40;;
69185;SDS011;56298;49.246;9.410;2023-05-16T08:40:44;41.70;;;22.95;;
69185;SDS011;56298;49.246;9.410;2023-05-16T08:43:09;40.17;;;22.23;;
69185;SDS011;56298;49.246;9.410;2023-05-16T08:45:35;38.07;;;22.33;;
69185;SDS011;56298;49.246;9.410;2023-05-16T08:48:00;38.67;;;21.10;;
69185;SDS011;56298;49.246;9.410;2023-05-16T08:50:28;41.72;;;22.98;;
69185;SDS011;56298;49.246;9.410;2023-05-16T08:52:55;39.83;;;22.42;;
69185;SDS011;56298;49.246;9.410;2023-05-16T08:55:21;40.93;;;22.03;;
69185;SDS011;56298;49.246;9.410;2023-05-16T08:57:49;39.17;;;22.35;;
69185;SDS011;56298;49.246;9.410;2023-05-16T09:00:16;43.17;;;22.40;;
69185;SDS011;56298;49.246;9.410;2023-05-16T09:02:43;38.38;;;21.75;;
69185;SDS011;56298;49.246;9.410;2023-05-16T09:05:10;40.10;;;21.65;;
69185;SDS011;56298;49.246;9.410;2023-05-16T09:07:36;39.75;;;21.60;;
69185;SDS011;56298;49.246;9.410;2023-05-16T09:10:02;38.90;;;21.95;;
69185;SDS011;56298;49.246;9.410;2023-05-16T09:12:29;40.58;;;21.48;;
69185;SDS011;56298;49.246;9.410;2023-05-16T09:14:55;37.55;;;21.33;;
69185;SDS011;56298;49.246;9.410;2023-05-16T09:17:20;35.80;;;20.47;;
69185;SDS011;56298;49.246;9.410;2023-05-16T09:19:45;38.37;;;20.43;;
69185;SDS011;56298;49.246;9.410;2023-05-16T09:22:14;38.38;;;20.85;;
69185;SDS011;56298;49.246;9.410;2023-05-16T09:24:40;35.77;;;20.10;;
69185;SDS011;56298;49.246;9.410;2023-05-16T09:27:09;37.40;;;20.00;;
69185;SDS011;56298;49.246;9.410;2023-05-16T09:29:41;34.83;;;18.63;;
69185;SDS011;56298;49.246;9.410;2023-05-16T09:32:14;32.28;;;17.63;;
69185;SDS011;56298;49.246;9.410;2023-05-16T09:34:43;32.63;;;18.33;;
69185;SDS011;56298;49.246;9.410;2023-05-16T09:37:10;33.83;;;18.63;;
69185;SDS011;56298;49.246;9.410;2023-05-16T09:39:37;35.70;;;18.17;;
69185;SDS011;56298;49.246;9.410;2023-05-16T09:42:05;30.75;;;16.85;;
69185;SDS011;56298;49.246;9.410;2023-05-16T09:44:35;31.15;;;17.10;;
69185;SDS011;56298;49.246;9.410;2023-05-16T09:47:01;31.42;;;17.42;;
69185;SDS011;56298;49.246;9.410;2023-05-16T09:49:26;30.33;;;17.63;;
69185;SDS011;56298;49.246;9.410;2023-05-16T09:51:52;33.00;;;17.80;;
69185;SDS011;56298;49.246;9.410;2023-05-16T09:54:28;29.93;;;17.20;;
69185;SDS011;56298;49.246;9.410;2023-05-16T09:56:54;31.90;;;16.92;;
69185;SDS011;56298;49.246;9.410;2023-05-16T09:59:20;28.85;;;16.63;;
69185;SDS011;56298;49.246;9.410;2023-05-16T10:01:45;31.45;;;16.63;;
69185;SDS011;56298;49.246;9.410;2023-05-16T10:04:12;31.03;;;16.20;;
69185;SDS011;56298;49.246;9.410;2023-05-16T10:06:40;30.27;;;16.30;;
69185;SDS011;56298;49.246;9.410;2023-05-16T10:09:12;29.02;;;16.02;;
69185;SDS011;56298;49.246;9.410;2023-05-16T10:11:40;27.63;;;15.43;;
69185;SDS011;56298;49.246;9.410;2023-05-16T10:14:08;25.93;;;14.87;;
69185;SDS011;56298;49.246;9.410;2023-05-16T10:16:34;26.35;;;14.98;;
69185;SDS011;56298;49.246;9.410;2023-05-16T10:19:00;23.13;;;12.95;;
69185;SDS011;56298;49.246;9.410;2023-05-16T10:21:27;23.48;;;13.35;;
69185;SDS011;56298;49.246;9.410;2023-05-16T10:23:54;25.02;;;14.32;;
69185;SDS011;56298;49.246;9.410;2023-05-16T10:26:22;25.30;;;13.90;;
69185;SDS011;56298;49.246;9.410;2023-05-16T10:28:48;24.40;;;13.30;;
69185;SDS011;56298;49.246;9.410;2023-05-16T10:31:15;20.20;;;12.43;;
69185;SDS011;56298;49.246;9.410;2023-05-16T10:33:40;17.92;;;11.20;;
69185;SDS011;56298;49.246;9.410;2023-05-16T10:36:06;17.42;;;10.88;;
69185;SDS011;56298;49.246;9.410;2023-05-16T10:38:33;15.93;;;9.60;;
69185;SDS011;56298;49.246;9.410;2023-05-16T10:41:00;15.82;;;9.55;;
69185;SDS011;56298;49.246;9.410;2023-05-16T10:43:26;15.87;;;9.33;;
69185;SDS011;56298;49.246;9.410;2023-05-16T10:45:54;15.10;;;9.30;;
69185;SDS011;56298;49.246;9.410;2023-05-16T10:48:27;14.73;;;8.82;;
69185;SDS011;56298;49.246;9.410;2023-05-16T10:50:57;11.38;;;6.47;;
69185;SDS011;56298;49.246;9.410;2023-05-16T10:53:33;11.97;;;7.27;;
69185;SDS011;56298;49.246;9.410;2023-05-16T11:06:21;9.75;;;5.40;;
69185;SDS011;56298;49.246;9.410;2023-05-16T11:17:05;8.87;;;4.73;;
69185;SDS011;56298;49.246;9.410;2023-05-16T11:19:44;7.85;;;4.60;;
69185;SDS011;56298;49.246;9.410;2023-05-16T11:25:14;9.20;;;4.37;;
69185;SDS011;56298;49.246;9.410;2023-05-16T11:27:43;8.07;;;4.28;;
69185;SDS011;56298;49.246;9.410;2023-05-16T11:32:38;7.80;;;3.85;;
69185;SDS011;56298;49.246;9.410;2023-05-16T11:35:05;7.32;;;4.20;;
69185;SDS011;56298;49.246;9.410;2023-05-16T11:37:33;7.03;;;4.03;;
69185;SDS011;56298;49.246;9.410;2023-05-16T11:40:01;7.20;;;3.83;;
69185;SDS011;56298;49.246;9.410;2023-05-16T11:42:32;7.25;;;3.90;;
69185;SDS011;56298;49.246;9.410;2023-05-16T11:45:06;6.88;;;3.70;;
69185;SDS011;56298;49.246;9.410;2023-05-16T11:47:31;7.70;;;3.85;;
69185;SDS011;56298;49.246;9.410;2023-05-16T11:49:57;6.47;;;3.77;;
69185;SDS011;56298;49.246;9.410;2023-05-16T11:52:22;7.70;;;3.63;;
69185;SDS011;56298;49.246;9.410;2023-05-16T11:54:48;6.77;;;3.43;;
69185;SDS011;56298;49.246;9.410;2023-05-16T11:57:14;6.80;;;3.90;;
69185;SDS011;56298;49.246;9.410;2023-05-16T11:59:40;6.45;;;3.95;;
69185;SDS011;56298;49.246;9.410;2023-05-16T12:02:06;7.35;;;4.32;;
69185;SDS011;56298;49.246;9.410;2023-05-16T12:04:33;6.30;;;3.80;;
69185;SDS011;56298;49.246;9.410;2023-05-16T12:06:59;6.07;;;3.70;;
69185;SDS011;56298;49.246;9.410;2023-05-16T12:09:25;5.60;;;3.40;;
69185;SDS011;56298;49.246;9.410;2023-05-16T12:11:51;6.13;;;3.13;;
69185;SDS011;56298;49.246;9.410;2023-05-16T12:14:17;5.88;;;3.00;;
69185;SDS011;56298;49.246;9.410;2023-05-16T12:16:43;6.57;;;3.40;;
69185;SDS011;56298;49.246;9.410;2023-05-16T12:19:10;6.22;;;3.20;;
69185;SDS011;56298;49.246;9.410;2023-05-16T12:21:36;6.30;;;2.87;;
69185;SDS011;56298;49.246;9.410;2023-05-16T12:24:02;5.50;;;2.93;;
69185;SDS011;56298;49.246;9.410;2023-05-16T12:26:29;6.50;;;2.70;;
69185;SDS011;56298;49.246;9.410;2023-05-16T12:28:59;6.15;;;2.83;;
69185;SDS011;56298;49.246;9.410;2023-05-16T12:31:27;4.65;;;2.10;;
69185;SDS011;56298;49.246;9.410;2023-05-16T12:33:54;4.70;;;2.17;;
69185;SDS011;56298;49.246;9.410;2023-05-16T12:36:20;5.10;;;2.43;;
69185;SDS011;56298;49.246;9.410;2023-05-16T12:38:47;4.88;;;2.17;;
69185;SDS011;56298;49.246;9.410;2023-05-16T12:41:19;4.57;;;2.03;;
69185;SDS011;56298;49.246;9.410;2023-05-16T12:43:48;3.75;;;1.90;;
69185;SDS011;56298;49.246;9.410;2023-05-16T12:46:14;4.70;;;2.00;;
69185;SDS011;56298;49.246;9.410;2023-05-16T12:48:39;5.18;;;2.25;;
69185;SDS011;56298;49.246;9.410;2023-05-16T12:53:46;5.03;;;2.10;;
69185;SDS011;56298;49.246;9.410;2023-05-16T12:56:13;4.50;;;1.90;;
69185;SDS011;56298;49.246;9.410;2023-05-16T12:58:40;4.78;;;2.00;;
69185;SDS011;56298;49.246;9.410;2023-05-16T13:01:06;4.97;;;2.00;;
69185;SDS011;56298;49.246;9.410;2023-05-16T13:03:31;5.10;;;2.10;;
69185;SDS011;56298;49.246;9.410;2023-05-16T13:05:58;5.60;;;2.10;;
69185;SDS011;56298;49.246;9.410;2023-05-16T13:08:23;4.75;;;1.90;;
69185;SDS011;56298;49.246;9.410;2023-05-16T13:10:49;4.27;;;2.00;;
69185;SDS011;56298;49.246;9.410;2023-05-16T13:13:15;3.70;;;1.50;;
69185;SDS011;56298;49.246;9.410;2023-05-16T13:15:40;4.82;;;1.60;;
69185;SDS011;56298;49.246;9.410;2023-05-16T13:18:06;4.27;;;1.67;;
69185;SDS011;56298;49.246;9.410;2023-05-16T13:20:31;3.87;;;1.70;;
69185;SDS011;56298;49.246;9.410;2023-05-16T13:22:57;4.33;;;1.77;;
69185;SDS011;56298;49.246;9.410;2023-05-16T13:25:22;3.60;;;1.60;;
69185;SDS011;56298;49.246;9.410;2023-05-16T13:27:47;3.50;;;1.40;;
69185;SDS011;56298;49.246;9.410;2023-05-16T13:30:13;3.42;;;1.30;;
69185;SDS011;56298;49.246;9.410;2023-05-16T13:32:38;3.60;;;1.43;;
69185;SDS011;56298;49.246;9.410;2023-05-16T13:35:04;3.90;;;1.43;;
69185;SDS011;56298;49.246;9.410;2023-05-16T13:37:30;4.00;;;1.40;;
69185;SDS011;56298;49.246;9.410;2023-05-16T13:39:55;4.93;;;1.33;;
69185;SDS011;56298;49.246;9.410;2023-05-16T13:42:21;5.40;;;1.80;;
69185;SDS011;56298;49.246;9.410;2023-05-16T13:44:46;5.20;;;1.80;;
69185;SDS011;56298;49.246;9.410;2023-05-16T13:47:11;6.10;;;2.07;;
69185;SDS011;56298;49.246;9.410;2023-05-16T13:49:37;5.63;;;1.80;;
69185;SDS011;56298;49.246;9.410;2023-05-16T13:52:03;4.13;;;1.80;;
69185;SDS011;56298;49.246;9.410;2023-05-16T13:54:28;5.53;;;2.00;;
69185;SDS011;56298;49.246;9.410;2023-05-16T13:56:54;4.50;;;1.67;;
69185;SDS011;56298;49.246;9.410;2023-05-16T13:59:19;6.67;;;2.03;;
69185;SDS011;56298;49.246;9.410;2023-05-16T14:01:44;4.67;;;1.60;;
69185;SDS011;56298;49.246;9.410;2023-05-16T14:04:09;4.77;;;1.80;;
69185;SDS011;56298;49.246;9.410;2023-05-16T14:06:35;6.33;;;1.77;;
69185;SDS011;56298;49.246;9.410;2023-05-16T14:09:01;5.90;;;1.70;;
69185;SDS011;56298;49.246;9.410;2023-05-16T14:11:27;5.68;;;1.77;;
69185;SDS011;56298;49.246;9.410;2023-05-16T14:13:52;5.00;;;1.73;;
69185;SDS011;56298;49.246;9.410;2023-05-16T14:16:18;6.07;;;2.00;;
69185;SDS011;56298;49.246;9.410;2023-05-16T14:18:43;5.60;;;1.90;;
69185;SDS011;56298;49.246;9.410;2023-05-16T14:21:09;5.60;;;1.70;;
69185;SDS011;56298;49.246;9.410;2023-05-16T14:23:34;5.82;;;1.70;;
69185;SDS011;56298;49.246;9.410;2023-05-16T14:26:00;5.10;;;1.43;;
69185;SDS011;56298;49.246;9.410;2023-05-16T14:28:26;7.90;;;1.70;;
69185;SDS011;56298;49.246;9.410;2023-05-16T14:30:52;5.90;;;1.95;;
69185;SDS011;56298;49.246;9.410;2023-05-16T14:33:18;6.93;;;1.60;;
69185;SDS011;56298;49.246;9.410;2023-05-16T14:35:43;6.32;;;1.73;;
69185;SDS011;56298;49.246;9.410;2023-05-16T14:38:09;6.45;;;1.77;;
69185;SDS011;56298;49.246;9.410;2023-05-16T14:40:34;5.40;;;1.63;;
69185;SDS011;56298;49.246;9.410;2023-05-16T14:42:59;7.47;;;1.50;;
69185;SDS011;56298;49.246;9.410;2023-05-16T14:45:27;5.60;;;1.67;;
69185;SDS011;56298;49.246;9.410;2023-05-16T14:47:53;5.20;;;1.60;;
69185;SDS011;56298;49.246;9.410;2023-05-16T14:50:18;6.90;;;1.70;;
69185;SDS011;56298;49.246;9.410;2023-05-16T14:52:43;6.13;;;1.80;;
69185;SDS011;56298;49.246;9.410;2023-05-16T14:55:08;6.30;;;1.73;;
69185;SDS011;56298;49.246;9.410;2023-05-16T14:57:34;6.83;;;1.90;;
69185;SDS011;56298;49.246;9.410;2023-05-16T15:00:00;6.30;;;1.75;;
69185;SDS011;56298;49.246;9.410;2023-05-16T15:02:25;6.00;;;1.70;;
69185;SDS011;56298;49.246;9.410;2023-05-16T15:04:51;5.53;;;1.70;;
69185;SDS011;56298;49.246;9.410;2023-05-16T15:07:16;7.00;;;2.07;;
69185;SDS011;56298;49.246;9.410;2023-05-16T15:09:42;6.50;;;1.80;;